Time;durP1;ratioP1;P1;durP2;ratioP2;P2;SDS_P1;SDS_P2;PMS_P1;PMS_P2;Temp;Humidity;BMP_temperature;BMP_pressure;BME280_temperature;BME280_humidity;BME280_pressure;Samples;Min_cycle;Max_cycle;Signal;HPM_P1;HPM_P2
2022/06/08 00:00:36;;;;;;;4.80;3.37;;;;;;;19.55;80.50;99079.56;4455718;32;34709;-80
2022/06/08 00:03:30;;;;;;;5.00;2.47;;;;;;;19.27;81.12;99078.16;4433467;32;33774;-80
2022/06/08 00:06:17;;;;;;;5.12;3.17;;;;;;;19.67;79.23;99068.19;4451503;32;35580;-80
2022/06/08 00:09:05;;;;;;;3.47;2.95;;;;;;;19.32;80.64;99079.75;4439887;32;33659;-81
2022/06/08 00:11:52;;;;;;;4.72;2.90;;;;;;;19.66;79.22;99077.69;4439330;32;34252;-80
2022/06/08 00:14:39;;;;;;;5.37;3.30;;;;;;;19.68;78.68;99074.53;4448219;32;35073;-81
2022/06/08 00:17:25;;;;;;;6.43;3.35;;;;;;;19.32;79.90;99083.38;4442834;32;35222;-80
2022/06/08 00:20:13;;;;;;;6.15;3.08;;;;;;;19.41;79.54;99076.66;4433987;32;33602;-81
2022/06/08 00:22:59;;;;;;;5.87;3.37;;;;;;;19.62;78.65;99076.84;4442531;32;33437;-80
2022/06/08 00:25:46;;;;;;;6.97;3.42;;;;;;;19.27;81.45;99067.03;4440153;32;34767;-81
2022/06/08 00:28:32;;;;;;;6.70;3.53;;;;;;;19.42;81.01;99069.94;4448660;32;35585;-80
2022/06/08 00:31:19;;;;;;;5.65;3.53;;;;;;;18.95;84.44;99061.16;4454932;32;32901;-80
2022/06/08 00:34:06;;;;;;;4.70;3.50;;;;;;;18.92;85.77;99070.25;4464675;32;34691;-81
2022/06/08 00:36:52;;;;;;;4.72;3.28;;;;;;;18.92;85.15;99067.47;4460864;32;35120;-80
2022/06/08 00:39:39;;;;;;;5.35;3.50;;;;;;;19.33;82.91;99076.63;4462486;32;35456;-82
2022/06/08 00:42:27;;;;;;;5.72;3.25;;;;;;;19.20;84.56;99074.50;4465281;32;34125;-81
2022/06/08 00:45:18;;;;;;;5.70;3.45;;;;;;;19.18;84.25;99069.34;4454301;32;35576;-82
2022/06/08 00:48:06;;;;;;;6.72;3.60;;;;;;;19.12;84.09;99070.84;4467618;32;34650;-82
2022/06/08 00:50:54;;;;;;;4.68;3.28;;;;;;;18.93;84.59;99073.84;4462669;32;34889;-81
2022/06/08 00:54:12;;;;;;;4.57;2.97;;;;;;;18.61;86.68;99102.00;4464824;32;34127;-83
2022/06/08 00:57:27;;;;;;;7.03;3.13;;;;;;;19.59;81.86;99191.56;4444535;32;35545;-82
2022/06/08 01:00:16;;;;;;;6.10;3.05;;;;;;;19.14;82.52;99195.44;4463189;32;34911;-80
2022/06/08 01:03:03;;;;;;;5.40;3.40;;;;;;;18.36;86.90;99151.62;4453384;32;34589;-82
2022/06/08 01:05:58;;;;;;;6.45;3.25;;;;;;;18.18;89.95;99138.28;4459572;32;34104;-81
2022/06/08 01:08:48;;;;;;;9.13;3.15;;;;;;;18.20;89.08;99127.62;4461791;32;35495;-83
2022/06/08 01:11:39;;;;;;;4.82;2.85;;;;;;;18.39;89.08;99140.56;4465623;32;35912;-81
2022/06/08 01:14:26;;;;;;;4.93;2.95;;;;;;;18.00;90.34;99136.44;4452555;32;34630;-82
2022/06/08 01:17:16;;;;;;;6.43;3.20;;;;;;;17.77;93.63;99126.16;4461840;32;35128;-83
2022/06/08 01:20:04;;;;;;;6.32;3.25;;;;;;;17.87;94.69;99117.25;4461833;32;34705;-82
2022/06/08 01:22:51;;;;;;;8.43;3.15;;;;;;;17.69;96.92;99124.44;4461855;32;34944;-82
2022/06/08 01:25:51;;;;;;;4.72;2.78;;;;;;;17.53;98.42;99128.16;4464211;32;35496;-81
2022/06/08 01:29:10;;;;;;;4.00;3.10;;;;;;;17.87;95.06;99120.03;4463204;32;34877;-82
2022/06/08 01:32:11;;;;;;;8.90;4.15;;;;;;;17.72;98.00;99134.78;4463560;32;34599;-82
2022/06/08 01:35:14;;;;;;;5.80;3.83;;;;;;;17.61;100.00;99123.50;4462252;32;35962;-86
2022/06/08 01:38:14;;;;;;;5.03;3.28;;;;;;;18.27;97.33;99115.84;4463671;32;34177;-86
2022/06/08 01:41:14;;;;;;;9.07;3.95;;;;;;;17.96;99.34;99106.69;4463582;32;33740;-85
2022/06/08 01:44:39;;;;;;;5.97;3.62;;;;;;;17.54;100.00;99101.25;4460144;32;34096;-84
2022/06/08 01:47:47;;;;;;;5.30;3.60;;;;;;;17.44;100.00;99090.78;4463001;32;35838;-85
2022/06/08 01:51:18;;;;;;;7.00;4.15;;;;;;;17.11;100.00;99086.66;4464744;32;34773;-85
2022/06/08 01:54:20;;;;;;;5.93;4.12;;;;;;;17.59;100.00;99078.78;4464528;32;35892;-84
2022/06/08 01:57:34;;;;;;;5.85;4.00;;;;;;;17.73;100.00;99081.78;4462367;32;34079;-86
2022/06/08 02:00:33;;;;;;;6.07;4.45;;;;;;;17.29;100.00;99095.28;4462686;32;35905;-84
2022/06/08 02:03:25;;;;;;;7.45;4.30;;;;;;;17.05;100.00;99110.28;4463278;32;34513;-80
2022/06/08 02:06:45;;;;;;;7.35;4.87;;;;;;;17.35;100.00;99115.94;4462802;32;34115;-80
2022/06/08 02:09:36;;;;;;;6.65;4.68;;;;;;;17.42;100.00;99104.22;4445659;32;34086;-80
2022/06/08 02:12:22;;;;;;;5.77;4.00;;;;;;;18.33;100.00;99114.34;4460328;32;34970;-80
2022/06/08 02:15:17;;;;;;;5.70;3.90;;;;;;;18.58;98.46;99127.72;4455163;32;34543;-80
2022/06/08 02:18:08;;;;;;;6.93;4.20;;;;;;;18.12;99.88;99127.88;4461711;32;34140;-80
2022/06/08 02:21:00;;;;;;;6.85;4.43;;;;;;;17.79;100.00;99134.94;4460671;32;34567;-79
2022/06/08 02:23:51;;;;;;;11.05;4.60;;;;;;;17.36;100.00;99139.72;4459323;32;34974;-80
2022/06/08 02:26:48;;;;;;;7.10;4.20;;;;;;;17.19;100.00;99137.41;4464137;32;35431;-80
2022/06/08 02:29:41;;;;;;;6.78;4.18;;;;;;;16.72;100.00;99141.22;4457614;32;33576;-79
2022/06/08 02:35:42;;;;;;;9.52;4.87;;;;;;;16.39;100.00;99131.44;4461405;32;35005;-79
2022/06/08 02:38:33;;;;;;;10.40;5.43;;;;;;;16.48;100.00;99125.69;4452242;32;34557;-79
2022/06/08 02:41:21;;;;;;;7.12;4.60;;;;;;;16.52;100.00;99137.66;4450818;32;34182;-78
2022/06/08 02:44:11;;;;;;;8.68;5.62;;;;;;;16.77;100.00;99146.50;4462387;32;34630;-78
2022/06/08 02:47:10;;;;;;;7.87;5.60;;;;;;;16.40;100.00;99144.91;4460134;32;35849;-77
2022/06/08 02:50:00;;;;;;;9.55;6.47;;;;;;;16.15;100.00;99140.81;4456299;32;34787;-79
2022/06/08 02:52:49;;;;;;;11.23;5.90;;;;;;;16.13;100.00;99121.81;4458175;32;34332;-78
2022/06/08 02:55:43;;;;;;;7.47;5.85;;;;;;;16.14;100.00;99101.31;4464022;32;34256;-78
2022/06/08 02:58:40;;;;;;;9.90;6.10;;;;;;;16.42;100.00;99080.94;4461920;32;35002;-77
2022/06/08 03:01:41;;;;;;;11.80;6.53;;;;;;;16.45;100.00;99085.78;4460915;32;34654;-79
2022/06/08 03:04:32;;;;;;;9.00;6.55;;;;;;;16.22;100.00;99104.22;4455636;32;34300;-78
2022/06/08 03:07:57;;;;;;;11.77;6.82;;;;;;;16.08;100.00;99105.53;4449944;32;34699;-77
2022/06/08 03:10:44;;;;;;;8.77;6.37;;;;;;;16.75;100.00;99107.31;4459918;32;34900;-77
2022/06/08 03:13:37;;;;;;;8.85;6.15;;;;;;;16.86;100.00;99122.97;4468592;32;35181;-78
2022/06/08 03:16:31;;;;;;;10.20;5.70;;;;;;;16.58;100.00;99123.16;4460960;32;34992;-77
2022/06/08 03:19:20;;;;;;;8.88;5.87;;;;;;;16.83;100.00;99120.12;4458337;32;34850;-76
2022/06/08 03:22:08;;;;;;;8.55;5.47;;;;;;;16.95;100.00;99125.50;4461561;32;35948;-77
2022/06/08 03:24:54;;;;;;;9.63;5.65;;;;;;;16.97;100.00;99134.25;4461258;32;34740;-77
2022/06/08 03:27:43;;;;;;;8.38;5.50;;;;;;;16.48;100.00;99139.53;4449051;32;33907;-77
2022/06/08 03:30:30;;;;;;;9.15;5.65;;;;;;;16.92;100.00;99140.06;4460888;32;34569;-76
2022/06/08 03:33:18;;;;;;;9.05;5.90;;;;;;;16.64;100.00;99145.81;4457427;32;35916;-78
2022/06/08 03:36:06;;;;;;;8.00;5.18;;;;;;;16.55;100.00;99140.47;4466142;32;33674;-76
2022/06/08 03:38:53;;;;;;;9.20;5.65;;;;;;;16.71;100.00;99142.41;4460041;32;35031;-76
2022/06/08 03:41:51;;;;;;;8.65;5.87;;;;;;;16.67;100.00;99141.50;4467351;32;35525;-76
2022/06/08 03:44:37;;;;;;;8.07;6.45;;;;;;;16.40;100.00;99144.12;4460313;32;34905;-79
2022/06/08 03:47:28;;;;;;;8.95;5.70;;;;;;;16.28;100.00;99141.47;4463563;32;34853;-79
2022/06/08 03:50:19;;;;;;;10.98;6.22;;;;;;;16.16;100.00;99128.56;4454807;32;34379;-79
2022/06/08 03:53:10;;;;;;;10.52;6.07;;;;;;;16.69;100.00;99128.12;4464465;32;35741;-80
2022/06/08 03:55:58;;;;;;;8.27;5.85;;;;;;;16.36;100.00;99124.69;4469853;32;35992;-79
2022/06/08 03:58:45;;;;;;;7.68;5.80;;;;;;;16.48;100.00;99123.75;4447928;32;34658;-79
2022/06/08 04:01:32;;;;;;;9.38;5.87;;;;;;;16.55;100.00;99123.09;4468451;32;33872;-79
2022/06/08 04:04:20;;;;;;;10.25;5.53;;;;;;;17.09;100.00;99120.25;4464020;32;34610;-79
2022/06/08 04:07:08;;;;;;;7.40;5.20;;;;;;;16.90;100.00;99105.62;4468664;32;36226;-78
2022/06/08 04:10:27;;;;;;;8.93;6.10;;;;;;;17.06;100.00;99115.44;4429629;32;34541;-79
2022/06/08 04:13:16;;;;;;;9.45;5.72;;;;;;;17.31;100.00;99121.44;4429782;32;33048;-79
2022/06/08 04:16:04;;;;;;;8.88;5.60;;;;;;;17.00;100.00;99136.28;4420980;32;35583;-80
2022/06/08 04:18:51;;;;;;;8.95;6.25;;;;;;;17.28;100.00;99129.69;4429510;32;34858;-79
2022/06/08 04:21:39;;;;;;;9.48;6.28;;;;;;;16.49;100.00;99141.94;4416556;32;34591;-80
2022/06/08 04:28:22;;;;;;;10.25;6.70;;;;;;;16.25;100.00;99133.91;4424790;32;143294;-78
2022/06/08 04:31:14;;;;;;;9.77;7.22;;;;;;;16.31;100.00;99129.72;4431834;32;35759;-79
2022/06/08 04:34:07;;;;;;;9.82;7.50;;;;;;;16.28;100.00;99130.41;4432986;32;34607;-80
2022/06/08 04:37:03;;;;;;;9.93;7.50;;;;;;;16.70;100.00;99135.25;4432647;32;33871;-80
2022/06/08 04:39:52;;;;;;;10.43;7.78;;;;;;;16.96;100.00;99142.91;4430285;32;34546;-80
2022/06/08 04:42:44;;;;;;;11.45;6.70;;;;;;;17.28;100.00;99121.38;4418070;32;34876;-79
2022/06/08 04:45:32;;;;;;;8.50;6.60;;;;;;;16.83;100.00;99123.69;4421320;32;35426;-80
2022/06/08 04:48:21;;;;;;;9.50;6.40;;;;;;;17.03;100.00;99123.69;4464207;32;34314;-80
2022/06/08 04:51:12;;;;;;;8.57;6.18;;;;;;;17.14;100.00;99116.37;4471053;32;35573;-79
2022/06/08 04:54:02;;;;;;;8.82;6.03;;;;;;;17.15;100.00;99120.75;4464200;32;34676;-80
2022/06/08 04:56:50;;;;;;;11.27;5.82;;;;;;;17.59;100.00;99113.97;4465140;32;34136;-80
2022/06/08 04:59:40;;;;;;;8.65;5.85;;;;;;;17.29;100.00;99120.19;4464396;32;34195;-80
2022/06/08 05:02:48;;;;;;;8.93;5.93;;;;;;;17.33;100.00;99115.50;4465459;32;35432;-81
2022/06/08 05:05:38;;;;;;;8.55;6.25;;;;;;;17.45;100.00;99109.81;4466870;32;36004;-79
2022/06/08 05:08:27;;;;;;;8.70;5.65;;;;;;;17.21;100.00;99122.03;4466079;32;34685;-80
2022/06/08 05:11:15;;;;;;;6.57;5.22;;;;;;;17.51;100.00;99130.47;4463341;32;34791;-80
2022/06/08 05:14:03;;;;;;;6.82;5.15;;;;;;;17.47;100.00;99129.59;4465541;32;34523;-80
2022/06/08 05:16:50;;;;;;;10.07;5.22;;;;;;;17.70;100.00;99124.06;4466817;32;35000;-81
2022/06/08 05:19:38;;;;;;;6.40;4.93;;;;;;;18.31;100.00;99125.00;4467460;32;34779;-81
2022/06/08 05:22:25;;;;;;;6.43;4.65;;;;;;;18.56;100.00;99121.75;4467803;32;34102;-79
2022/06/08 05:25:18;;;;;;;8.55;4.80;;;;;;;18.10;100.00;99135.78;4467450;32;34673;-81
2022/06/08 05:28:11;;;;;;;6.85;4.32;;;;;;;18.32;100.00;99136.88;4465379;32;34994;-79
2022/06/08 05:31:00;;;;;;;5.78;3.87;;;;;;;17.76;100.00;99146.72;4465764;32;34787;-80
2022/06/08 05:33:49;;;;;;;4.93;4.00;;;;;;;18.25;100.00;99145.13;4466725;32;35034;-80
2022/06/08 05:36:36;;;;;;;6.07;3.97;;;;;;;19.08;100.00;99153.31;4455836;32;35578;-81
2022/06/08 05:39:23;;;;;;;4.80;3.58;;;;;;;19.03;100.00;99156.44;4465816;32;34991;-81
2022/06/08 05:42:17;;;;;;;5.57;4.00;;;;;;;19.09;99.74;99141.81;4468931;32;34494;-80
2022/06/08 05:45:07;;;;;;;5.72;3.92;;;;;;;18.25;100.00;99145.91;4456497;32;35347;-79
2022/06/08 05:47:56;;;;;;;6.47;4.07;;;;;;;18.24;100.00;99149.84;4465147;32;34796;-80
2022/06/08 05:50:44;;;;;;;6.78;4.82;;;;;;;18.09;100.00;99140.53;4464975;32;35050;-79
2022/06/08 05:53:33;;;;;;;8.27;4.65;;;;;;;18.41;100.00;99149.31;4465805;32;33548;-79
2022/06/08 05:56:22;;;;;;;6.55;4.18;;;;;;;17.92;100.00;99166.78;4462964;32;33868;-79
2022/06/08 05:59:09;;;;;;;7.62;4.35;;;;;;;18.41;100.00;99176.22;4462960;32;34562;-80
2022/06/08 06:01:56;;;;;;;7.20;4.47;;;;;;;18.67;100.00;99180.97;4452562;32;35849;-80
2022/06/08 06:04:43;;;;;;;7.47;4.82;;;;;;;19.07;100.00;99188.62;4467201;32;34654;-80
2022/06/08 06:07:32;;;;;;;5.78;4.30;;;;;;;18.60;100.00;99183.63;4464730;32;34063;-79
2022/06/08 06:10:26;;;;;;;6.22;4.40;;;;;;;18.19;100.00;99175.16;4464884;32;34563;-80
2022/06/08 06:13:13;;;;;;;7.00;4.90;;;;;;;18.31;100.00;99174.91;4462595;32;34739;-79
2022/06/08 06:16:00;;;;;;;7.80;5.00;;;;;;;18.21;100.00;99175.53;4461404;32;34639;-79
2022/06/08 06:18:48;;;;;;;6.45;4.53;;;;;;;18.72;100.00;99182.59;4463375;32;35102;-79
2022/06/08 06:21:38;;;;;;;9.90;5.20;;;;;;;18.78;100.00;99176.34;4465557;32;34700;-78
2022/06/08 06:24:32;;;;;;;7.43;4.95;;;;;;;18.20;100.00;99171.19;4462583;32;35009;-78
2022/06/08 06:27:21;;;;;;;8.45;5.05;;;;;;;18.54;100.00;99162.94;4459612;32;34539;-80
2022/06/08 06:30:11;;;;;;;7.12;4.72;;;;;;;18.29;100.00;99173.69;4462458;32;34207;-79
2022/06/08 06:33:02;;;;;;;7.03;5.28;;;;;;;18.72;100.00;99163.97;4467860;32;34164;-79
2022/06/08 06:35:57;;;;;;;9.02;5.72;;;;;;;18.47;100.00;99168.38;4469032;32;35036;-79
2022/06/08 06:38:45;;;;;;;8.93;5.10;;;;;;;18.72;100.00;99175.06;4464032;32;36168;-79
2022/06/08 06:41:33;;;;;;;7.07;5.28;;;;;;;18.55;100.00;99159.78;4464296;32;35007;-79
2022/06/08 06:44:24;;;;;;;6.53;4.70;;;;;;;19.04;100.00;99163.56;4463150;32;35311;-80
2022/06/08 06:47:12;;;;;;;9.57;5.65;;;;;;;19.27;100.00;99160.69;4452548;32;35827;-79
2022/06/08 06:49:59;;;;;;;8.60;5.25;;;;;;;19.51;99.87;99160.09;4440506;32;34535;-79
2022/06/08 06:52:50;;;;;;;8.85;5.60;;;;;;;19.43;100.00;99158.44;4462920;32;34060;-80
2022/06/08 06:55:40;;;;;;;6.72;4.90;;;;;;;19.13;100.00;99161.31;4453025;32;34614;-80
2022/06/08 06:58:29;;;;;;;7.72;4.60;;;;;;;19.36;100.00;99138.94;4465249;32;34444;-80
2022/06/08 07:01:19;;;;;;;8.15;5.20;;;;;;;19.59;98.43;99132.41;4465385;32;34704;-83
2022/06/08 07:04:06;;;;;;;6.35;4.60;;;;;;;19.37;100.00;99131.41;4468256;32;34997;-83
2022/06/08 07:06:54;;;;;;;5.80;4.37;;;;;;;19.73;99.20;99119.44;4465155;32;35669;-83
2022/06/08 07:09:44;;;;;;;6.12;3.80;;;;;;;20.30;97.20;99118.25;4451922;32;34976;-82
2022/06/08 07:12:33;;;;;;;6.53;4.25;;;;;;;19.97;97.12;99123.59;4470371;32;33555;-82
2022/06/08 07:15:23;;;;;;;5.22;4.00;;;;;;;20.16;96.96;99118.94;4463368;32;33972;-81
2022/06/08 07:18:12;;;;;;;6.65;3.97;;;;;;;20.27;97.08;99117.03;4467086;32;35223;-81
2022/06/08 07:21:00;;;;;;;7.68;3.97;;;;;;;20.35;96.34;99113.09;4466610;32;35146;-81
2022/06/08 07:23:48;;;;;;;5.75;4.00;;;;;;;20.62;93.17;99132.34;4462530;32;34336;-81
2022/06/08 07:29:36;;;;;;;6.12;4.35;;;;;;;21.19;88.42;99109.44;4471540;32;34617;-80
2022/06/08 07:32:23;;;;;;;5.25;4.12;;;;;;;21.72;85.48;99109.50;4456410;32;34668;-81
2022/06/08 07:35:14;;;;;;;7.93;4.47;;;;;;;22.11;82.62;99103.06;4478106;32;34661;-82
2022/06/08 07:38:33;;;;;;;5.28;4.35;;;;;;;22.34;81.97;99099.88;4463577;32;34369;-82
2022/06/08 07:41:29;;;;;;;;;;;;;;;22.26;82.88;99103.09;4487805;32;34826;-82
2022/06/08 07:44:18;;;;;;;5.78;4.15;;;;;;;22.14;81.85;99104.25;4474054;32;35489;-81
2022/06/08 07:47:11;;;;;;;6.50;4.80;;;;;;;22.65;81.58;99100.13;4473143;32;34651;-81
2022/06/08 07:49:59;;;;;;;6.43;4.82;;;;;;;23.30;75.38;99100.59;4461720;32;35041;-81
2022/06/08 07:52:49;;;;;;;7.35;4.85;;;;;;;23.32;70.52;99101.78;4472885;32;35018;-80
2022/06/08 07:55:39;;;;;;;5.95;4.72;;;;;;;23.86;68.72;99103.38;4475560;32;36153;-81
2022/06/08 07:58:26;;;;;;;9.27;5.03;;;;;;;23.94;70.08;99104.91;4474349;32;35606;-81
2022/06/08 08:01:14;;;;;;;8.85;5.60;;;;;;;24.32;68.27;99104.91;4473901;32;33618;-81
2022/06/08 08:04:06;;;;;;;8.95;5.68;;;;;;;24.30;67.21;99101.72;4482113;31;35480;-80
2022/06/08 08:06:53;;;;;;;8.18;5.85;;;;;;;24.74;65.49;99102.84;4469504;32;34593;-80
2022/06/08 08:09:40;;;;;;;7.43;5.45;;;;;;;24.85;63.52;99093.09;4471082;32;35469;-81
2022/06/08 08:12:27;;;;;;;7.00;5.28;;;;;;;24.55;66.28;99091.06;4457199;31;34580;-80
2022/06/08 08:15:16;;;;;;;8.27;5.60;;;;;;;25.02;64.80;99102.47;4460327;32;35565;-81
2022/06/08 08:18:04;;;;;;;8.68;5.87;;;;;;;25.26;63.95;99097.72;4454054;32;35558;-81
2022/06/08 08:20:53;;;;;;;6.30;4.80;;;;;;;23.84;66.74;99097.41;4471528;32;35333;-81
2022/06/08 08:23:40;;;;;;;9.80;5.85;;;;;;;24.85;66.83;99098.69;4468494;32;34017;-81
2022/06/08 08:26:27;;;;;;;11.07;6.50;;;;;;;24.92;65.92;99094.97;4469225;32;33555;-80
2022/06/08 08:29:20;;;;;;;8.40;5.97;;;;;;;25.38;62.12;99096.34;4467382;32;34943;-80
2022/06/08 08:32:10;;;;;;;8.10;5.47;;;;;;;25.53;63.82;99106.12;4467588;32;35390;-81
2022/06/08 08:34:58;;;;;;;8.70;5.43;;;;;;;25.68;63.42;99097.47;4468337;32;33957;-80
2022/06/08 08:37:46;;;;;;;7.47;5.25;;;;;;;25.40;64.14;99099.53;4470269;32;34652;-80
2022/06/08 08:40:44;;;;;;;8.40;6.00;;;;;;;25.38;62.89;99095.56;4480603;32;34601;-80
2022/06/08 08:43:37;;;;;;;8.85;6.07;;;;;;;25.18;63.91;99087.03;4459938;32;34357;-80
2022/06/08 08:46:32;;;;;;;8.15;6.45;;;;;;;25.96;61.58;99090.59;4470530;31;34099;-80
2022/06/08 08:49:23;;;;;;;8.63;6.43;;;;;;;25.91;58.89;99094.69;4468599;32;35474;-81
2022/06/08 08:52:20;;;;;;;8.10;6.50;;;;;;;25.23;58.67;99100.59;4460077;32;34862;-80
2022/06/08 08:55:23;;;;;;;8.15;5.70;;;;;;;26.17;58.26;99095.03;4470587;32;34611;-77
2022/06/08 08:58:19;;;;;;;9.13;6.82;;;;;;;26.32;58.66;99090.69;4470819;32;34162;-78
2022/06/08 09:01:21;;;;;;;12.18;8.27;;;;;;;26.36;59.64;99087.84;4469887;32;34544;-78
2022/06/08 09:04:29;;;;;;;8.20;6.60;;;;;;;25.83;59.18;99093.22;4470670;32;35036;-78
2022/06/08 09:07:19;;;;;;;9.07;7.28;;;;;;;26.39;58.91;99096.19;4470560;32;34699;-78
2022/06/08 09:10:07;;;;;;;11.70;7.55;;;;;;;26.71;57.11;99094.78;4469437;31;34033;-78
2022/06/08 09:12:56;;;;;;;9.07;7.93;;;;;;;27.17;57.55;99100.63;4467700;32;35263;-78
2022/06/08 09:15:47;;;;;;;10.15;8.05;;;;;;;26.83;56.61;99094.09;4467759;32;34686;-78
2022/06/08 09:18:39;;;;;;;;;;;;;;;25.79;60.64;99093.28;4469333;32;35461;-78
2022/06/08 09:21:35;;;;;;;10.57;7.32;;;;;;;26.59;58.00;99093.41;4459153;32;34830;-77
2022/06/08 09:24:37;;;;;;;10.07;7.97;;;;;;;26.63;59.83;99082.09;4467905;32;35133;-71
2022/06/08 09:27:30;;;;;;;10.68;8.15;;;;;;;26.55;58.04;99077.84;4479341;32;35753;-72
2022/06/08 09:30:27;;;;;;;11.23;7.40;;;;;;;26.57;60.47;99072.59;4449307;32;34769;-72
2022/06/08 09:33:28;;;;;;;8.63;7.12;;;;;;;26.12;60.69;99079.47;4440750;32;33904;-71
2022/06/08 09:36:24;;;;;;;12.37;8.30;;;;;;;26.58;59.87;99065.75;4454183;32;34567;-72
2022/06/08 09:39:15;;;;;;;9.05;8.02;;;;;;;25.82;59.72;99057.16;4447575;32;36005;-72
2022/06/08 09:42:11;;;;;;;10.65;7.18;;;;;;;26.03;58.30;99051.16;4459082;32;34196;-72
2022/06/08 09:45:08;;;;;;;7.93;7.12;;;;;;;26.43;59.16;99046.34;4455768;32;34194;-72
2022/06/08 09:51:49;;;;;;;6.90;6.03;;;;;;;27.44;59.07;99030.88;4445262;32;35469;-72
2022/06/08 09:54:42;;;;;;;10.63;7.10;;;;;;;27.76;55.62;99029.25;4444522;32;35496;-72
2022/06/08 09:57:32;;;;;;;8.68;7.25;;;;;;;27.54;55.17;99015.72;4447391;32;34097;-72
2022/06/08 10:00:20;;;;;;;8.48;6.75;;;;;;;27.27;55.08;99003.97;4447290;32;34681;-73
2022/06/08 10:03:32;;;;;;;8.30;6.72;;;;;;;28.49;54.16;99009.94;4451502;32;34496;-73
2022/06/08 10:06:36;;;;;;;8.85;7.72;;;;;;;28.42;52.14;99004.50;4443066;32;35021;-73
2022/06/08 10:09:46;;;;;;;8.45;6.93;;;;;;;28.18;50.81;98993.50;4447163;32;32855;-72
2022/06/08 10:12:43;;;;;;;11.00;6.70;;;;;;;27.99;49.91;98992.44;4449233;32;34262;-73
2022/06/08 10:15:43;;;;;;;11.27;7.03;;;;;;;28.89;49.82;99001.06;4434740;32;35672;-73
2022/06/08 10:19:00;;;;;;;7.30;6.30;;;;;;;28.33;49.64;98995.91;4445058;32;34540;-73
2022/06/08 10:21:48;;;;;;;8.23;6.12;;;;;;;28.81;52.28;98991.25;4452479;32;33687;-73
2022/06/08 10:24:47;;;;;;;9.82;6.50;;;;;;;28.72;50.38;98988.31;4452486;32;34618;-73
2022/06/08 10:27:44;;;;;;;7.57;6.57;;;;;;;28.84;49.25;98984.72;4455269;32;34962;-74
2022/06/08 10:30:41;;;;;;;9.60;6.35;;;;;;;29.32;48.02;98975.09;4475510;32;34717;-73
2022/06/08 10:34:04;;;;;;;8.52;6.47;;;;;;;28.10;49.84;98978.06;4467167;32;34289;-73
2022/06/08 10:36:58;;;;;;;9.32;6.00;;;;;;;28.62;50.02;98985.38;4470624;32;34184;-73
2022/06/08 10:39:47;;;;;;;7.28;6.05;;;;;;;29.18;48.80;98977.63;4465178;32;35035;-74
2022/06/08 10:42:40;;;;;;;6.97;5.90;;;;;;;28.21;48.23;98972.91;4467883;32;35351;-74
2022/06/08 10:45:45;;;;;;;9.48;6.00;;;;;;;27.68;49.23;98963.13;4466802;32;35026;-75
2022/06/08 10:48:34;;;;;;;8.45;5.60;;;;;;;28.46;48.10;98957.28;4466418;32;34250;-75
2022/06/08 10:51:26;;;;;;;5.80;5.17;;;;;;;29.32;44.77;98960.22;4459035;32;35047;-76
2022/06/08 10:54:57;;;;;;;6.32;5.40;;;;;;;28.49;43.24;98956.41;4469997;32;34512;-75
2022/06/08 10:57:50;;;;;;;7.70;4.85;;;;;;;28.38;42.59;98953.09;4469207;32;33796;-75
2022/06/08 11:00:58;;;;;;;8.25;4.95;;;;;;;28.76;42.11;98949.53;4477663;31;33468;-75
2022/06/08 11:03:49;;;;;;;10.38;5.50;;;;;;;28.83;43.78;98950.09;4470348;32;34976;-75
2022/06/08 11:07:07;;;;;;;6.43;5.18;;;;;;;29.08;42.43;98938.00;4480326;31;34955;-75
2022/06/08 11:09:59;;;;;;;7.18;4.95;;;;;;;29.52;40.07;98938.12;4452385;32;34142;-84
2022/06/08 11:13:05;;;;;;;8.27;5.07;;;;;;;29.63;39.22;98936.97;4461000;32;34595;-84
2022/06/08 11:16:17;;;;;;;5.82;4.57;;;;;;;29.59;40.55;98945.53;4467857;32;35135;-84
2022/06/08 11:19:11;;;;;;;6.78;4.60;;;;;;;29.54;37.52;98934.84;4468176;32;34559;-84
2022/06/08 11:22:05;;;;;;;6.20;4.82;;;;;;;29.53;38.93;98934.06;4468208;32;34445;-82
2022/06/08 11:24:58;;;;;;;7.07;4.80;;;;;;;29.28;39.70;98932.09;4465650;32;36310;-83
2022/06/08 11:28:24;;;;;;;7.55;4.70;;;;;;;29.60;40.45;98927.37;4469353;32;34953;-82
2022/06/08 11:31:27;;;;;;;8.68;4.60;;;;;;;28.70;40.37;98924.72;4481517;32;35263;-83
2022/06/08 11:34:19;;;;;;;6.47;4.93;;;;;;;28.75;41.27;98923.38;4476597;31;34359;-82
2022/06/08 11:37:37;;;;;;;7.95;4.53;;;;;;;28.09;41.19;98920.16;4480339;32;35499;-83
2022/06/08 11:40:30;;;;;;;8.05;4.20;;;;;;;28.21;42.72;98916.56;4463850;32;36087;-83
2022/06/08 11:43:35;;;;;;;7.10;4.30;;;;;;;28.81;40.93;98920.78;4467428;31;34088;-85
2022/06/08 11:46:39;;;;;;;7.70;4.78;;;;;;;27.71;41.57;98915.16;4464352;31;33777;-83
2022/06/08 11:49:33;;;;;;;6.65;4.25;;;;;;;28.27;42.34;98921.66;4466160;32;34399;-83
2022/06/08 11:52:33;;;;;;;6.47;4.55;;;;;;;28.06;42.05;98931.50;4469105;32;34928;-83
2022/06/08 11:55:24;;;;;;;6.35;4.62;;;;;;;28.42;41.17;98922.81;4469114;32;34609;-83
2022/06/08 11:58:18;;;;;;;12.15;5.28;;;;;;;27.92;43.15;98938.34;4481346;32;34137;-83
2022/06/08 12:01:13;;;;;;;6.15;5.30;;;;;;;27.75;43.52;98931.94;4469127;32;34659;-83
2022/06/08 12:04:07;;;;;;;7.87;5.25;;;;;;;28.07;42.87;98928.25;4459591;32;35587;-83
2022/06/08 12:06:59;;;;;;;9.73;5.25;;;;;;;28.59;42.35;98935.56;4468986;32;35820;-82
2022/06/08 12:09:46;;;;;;;;;;;;;;;28.86;41.93;98935.09;4468099;31;34638;-84
2022/06/08 12:12:33;;;;;;;10.05;7.25;;;;;;;28.12;41.87;98936.16;4457629;31;35802;-82
2022/06/08 12:15:33;;;;;;;9.45;8.05;;;;;;;25.42;60.40;98951.28;4468866;32;34863;-81
2022/06/08 12:18:21;;;;;;;8.93;7.18;;;;;;;23.74;72.46;98948.06;4480341;32;34750;-83
2022/06/08 12:21:39;;;;;;;10.70;7.37;;;;;;;24.82;69.47;98944.66;4481243;32;33854;-81
2022/06/08 12:24:33;;;;;;;7.53;6.45;;;;;;;24.56;70.85;98944.25;4457489;32;35629;-81
2022/06/08 12:27:25;;;;;;;9.18;6.22;;;;;;;24.59;68.84;98937.78;4468668;31;34931;-82
2022/06/08 12:30:33;;;;;;;8.38;6.53;;;;;;;25.09;67.56;98944.59;4480858;32;35404;-83
2022/06/08 12:33:29;;;;;;;8.82;7.10;;;;;;;25.16;66.31;98933.31;4469836;32;35330;-84
2022/06/08 12:36:16;;;;;;;8.57;6.18;;;;;;;25.09;66.33;98934.19;4458087;32;35587;-81
2022/06/08 12:42:29;;;;;;;9.43;6.45;;;;;;;24.93;65.53;98931.25;4480212;31;35553;-84
2022/06/08 12:45:33;;;;;;;8.73;6.80;;;;;;;24.86;66.26;98926.56;4470228;32;34192;-83
2022/06/08 12:48:27;;;;;;;8.93;6.93;;;;;;;24.79;68.46;98925.87;4468997;32;34599;-81
2022/06/08 12:51:35;;;;;;;7.07;5.60;;;;;;;24.20;69.02;98933.50;4464428;31;34930;-82
2022/06/08 12:54:30;;;;;;;7.45;5.57;;;;;;;25.07;66.48;98935.81;4480935;32;35537;-82
2022/06/08 12:57:23;;;;;;;8.60;7.05;;;;;;;24.91;67.18;98939.28;4456817;32;34138;-83
2022/06/08 13:03:26;;;;;;;8.77;6.30;;;;;;;24.97;65.42;98951.59;4466827;32;34112;-84
2022/06/08 13:06:15;;;;;;;9.57;6.82;;;;;;;24.98;65.42;98950.38;4456887;32;34526;-84
2022/06/08 13:09:17;;;;;;;8.82;7.20;;;;;;;24.92;65.55;98949.28;4452849;32;35121;-83
2022/06/08 13:12:05;;;;;;;10.85;6.22;;;;;;;24.10;68.10;98948.41;4467515;32;33845;-85
2022/06/08 13:14:52;;;;;;;6.78;5.95;;;;;;;25.13;65.78;98957.34;4468592;32;34951;-83
2022/06/08 13:17:48;;;;;;;7.20;5.97;;;;;;;24.91;65.67;98947.69;4480883;31;34705;-74
2022/06/08 13:20:38;;;;;;;7.80;6.47;;;;;;;25.31;63.95;98947.88;4468879;32;35154;-74
2022/06/08 13:23:26;;;;;;;7.65;6.22;;;;;;;25.01;62.75;98948.72;4467672;32;34274;-88
2022/06/08 13:26:27;;;;;;;7.60;5.87;;;;;;;25.05;63.30;98941.06;4477925;32;35908;-87
2022/06/08 13:29:16;;;;;;;7.65;5.85;;;;;;;25.16;62.78;98940.91;4467322;32;34907;-82
2022/06/08 13:32:15;;;;;;;6.87;6.15;;;;;;;24.98;60.90;98938.38;4448094;32;35251;-87
2022/06/08 13:35:03;;;;;;;8.18;6.20;;;;;;;24.33;63.25;98938.53;4462493;32;35682;-88
2022/06/08 13:37:55;;;;;;;9.10;6.20;;;;;;;23.70;66.80;98941.66;4472930;32;36015;-87
2022/06/08 13:40:45;;;;;;;8.27;6.07;;;;;;;24.21;64.55;98949.06;4454512;32;33526;-83
2022/06/08 13:43:39;;;;;;;6.95;5.90;;;;;;;24.65;64.19;98938.09;4476837;32;34128;-84
2022/06/08 13:46:32;;;;;;;7.05;5.65;;;;;;;24.09;64.38;98929.25;4465541;32;35509;-83
2022/06/08 13:49:21;;;;;;;8.18;6.15;;;;;;;25.43;60.78;98930.41;4460902;32;34485;-84
2022/06/08 13:52:18;;;;;;;8.40;6.20;;;;;;;24.78;61.91;98935.50;4461795;32;34143;-86